sensor_id;sensor_type;location;lat;lon;timestamp;pressure;altitude;pressure_sealevel;temperature;humidity
38630;BME280;24384;51.988;4.644;2023-12-22T00:01:05;100309.34;;;6.23;100.00
38630;BME280;24384;51.988;4.644;2023-12-22T00:03:30;100316.41;;;6.19;100.00
38630;BME280;24384;51.988;4.644;2023-12-22T00:05:55;100332.00;;;6.24;100.00
38630;BME280;24384;51.988;4.644;2023-12-22T00:08:21;100332.09;;;6.19;100.00
38630;BME280;24384;51.988;4.644;2023-12-22T00:10:46;100323.25;;;6.25;100.00
38630;BME280;24384;51.988;4.644;2023-12-22T00:13:12;100324.16;;;6.24;100.00
38630;BME280;24384;51.988;4.644;2023-12-22T00:15:37;100326.63;;;6.30;100.00
38630;BME280;24384;51.988;4.644;2023-12-22T00:18:03;100316.00;;;6.36;100.00
38630;BME280;24384;51.988;4.644;2023-12-22T00:20:28;100316.84;;;6.38;100.00
38630;BME280;24384;51.988;4.644;2023-12-22T00:22:54;100327.09;;;6.48;100.00
38630;BME280;24384;51.988;4.644;2023-12-22T00:25:19;100319.91;;;6.56;100.00
38630;BME280;24384;51.988;4.644;2023-12-22T00:27:44;100305.00;;;6.58;100.00
38630;BME280;24384;51.988;4.644;2023-12-22T00:30:10;100311.72;;;6.68;100.00
38630;BME280;24384;51.988;4.644;2023-12-22T00:32:36;100308.03;;;6.77;100.00
38630;BME280;24384;51.988;4.644;2023-12-22T00:35:01;100289.34;;;6.89;100.00
38630;BME280;24384;51.988;4.644;2023-12-22T00:37:26;100308.44;;;6.94;100.00
38630;BME280;24384;51.988;4.644;2023-12-22T00:39:51;100295.13;;;7.02;100.00
38630;BME280;24384;51.988;4.644;2023-12-22T00:42:17;100311.53;;;7.09;100.00
38630;BME280;24384;51.988;4.644;2023-12-22T00:44:42;100302.56;;;7.17;100.00
38630;BME280;24384;51.988;4.644;2023-12-22T00:47:07;100292.06;;;7.17;100.00
38630;BME280;24384;51.988;4.644;2023-12-22T00:49:33;100288.66;;;7.15;100.00
38630;BME280;24384;51.988;4.644;2023-12-22T00:51:58;100307.06;;;7.14;100.00
38630;BME280;24384;51.988;4.644;2023-12-22T00:54:23;100320.28;;;7.09;100.00
38630;BME280;24384;51.988;4.644;2023-12-22T00:56:50;100337.00;;;7.05;100.00
38630;BME280;24384;51.988;4.644;2023-12-22T00:59:15;100316.81;;;7.07;100.00
38630;BME280;24384;51.988;4.644;2023-12-22T01:01:41;100332.69;;;7.03;100.00
38630;BME280;24384;51.988;4.644;2023-12-22T01:04:06;100321.19;;;7.08;100.00
38630;BME280;24384;51.988;4.644;2023-12-22T01:06:31;100339.56;;;7.07;100.00
38630;BME280;24384;51.988;4.644;2023-12-22T01:08:57;100347.41;;;7.08;100.00
38630;BME280;24384;51.988;4.644;2023-12-22T01:11:22;100349.22;;;7.06;100.00
38630;BME280;24384;51.988;4.644;2023-12-22T01:13:47;100352.72;;;7.05;100.00
38630;BME280;24384;51.988;4.644;2023-12-22T01:16:13;100339.69;;;7.02;100.00
38630;BME280;24384;51.988;4.644;2023-12-22T01:18:40;100354.53;;;7.03;100.00
38630;BME280;24384;51.988;4.644;2023-12-22T01:21:07;100355.03;;;7.17;100.00
38630;BME280;24384;51.988;4.644;2023-12-22T01:23:33;100347.31;;;7.11;100.00
38630;BME280;24384;51.988;4.644;2023-12-22T01:25:58;100348.22;;;7.10;100.00
38630;BME280;24384;51.988;4.644;2023-12-22T01:28:23;100352.75;;;7.04;100.00
38630;BME280;24384;51.988;4.644;2023-12-22T01:30:49;100330.78;;;7.09;100.00
38630;BME280;24384;51.988;4.644;2023-12-22T01:33:14;100342.06;;;7.11;100.00
38630;BME280;24384;51.988;4.644;2023-12-22T01:35:39;100335.97;;;7.11;100.00
38630;BME280;24384;51.988;4.644;2023-12-22T01:38:05;100362.13;;;7.14;100.00
38630;BME280;24384;51.988;4.644;2023-12-22T01:40:30;100375.91;;;7.21;100.00
38630;BME280;24384;51.988;4.644;2023-12-22T01:42:55;100381.22;;;7.19;100.00
38630;BME280;24384;51.988;4.644;2023-12-22T01:45:21;100391.56;;;7.24;100.00
38630;BME280;24384;51.988;4.644;2023-12-22T01:47:46;100385.59;;;7.19;100.00
38630;BME280;24384;51.988;4.644;2023-12-22T01:50:13;100387.38;;;7.16;100.00
38630;BME280;24384;51.988;4.644;2023-12-22T01:52:39;100383.09;;;7.14;100.00
38630;BME280;24384;51.988;4.644;2023-12-22T01:55:08;100376.94;;;7.15;100.00
38630;BME280;24384;51.988;4.644;2023-12-22T01:57:35;100382.13;;;7.16;100.00
38630;BME280;24384;51.988;4.644;2023-12-22T02:00:01;100369.06;;;7.15;100.00
38630;BME280;24384;51.988;4.644;2023-12-22T02:02:27;100365.47;;;7.19;100.00
38630;BME280;24384;51.988;4.644;2023-12-22T02:04:53;100367.88;;;7.27;100.00
38630;BME280;24384;51.988;4.644;2023-12-22T02:07:18;100376.59;;;7.27;100.00
38630;BME280;24384;51.988;4.644;2023-12-22T02:09:44;100369.50;;;7.32;100.00
38630;BME280;24384;51.988;4.644;2023-12-22T02:12:10;100372.00;;;7.37;100.00
38630;BME280;24384;51.988;4.644;2023-12-22T02:14:35;100386.81;;;7.38;100.00
38630;BME280;24384;51.988;4.644;2023-12-22T02:20:04;100373.06;;;7.30;100.00
38630;BME280;24384;51.988;4.644;2023-12-22T02:22:29;100374.75;;;7.32;100.00
38630;BME280;24384;51.988;4.644;2023-12-22T02:24:55;100361.75;;;7.28;100.00
38630;BME280;24384;51.988;4.644;2023-12-22T02:29:55;100358.13;;;7.32;100.00
38630;BME280;24384;51.988;4.644;2023-12-22T02:32:27;100370.44;;;7.30;100.00
38630;BME280;24384;51.988;4.644;2023-12-22T02:34:53;100370.50;;;7.27;100.00
38630;BME280;24384;51.988;4.644;2023-12-22T02:37:21;100360.75;;;7.32;100.00
38630;BME280;24384;51.988;4.644;2023-12-22T02:39:48;100358.03;;;7.35;100.00
38630;BME280;24384;51.988;4.644;2023-12-22T02:42:14;100361.47;;;7.39;100.00
38630;BME280;24384;51.988;4.644;2023-12-22T02:44:40;100355.50;;;7.32;100.00
38630;BME280;24384;51.988;4.644;2023-12-22T02:47:06;100354.69;;;7.30;100.00
38630;BME280;24384;51.988;4.644;2023-12-22T02:49:31;100344.97;;;7.33;100.00
38630;BME280;24384;51.988;4.644;2023-12-22T02:51:56;100343.34;;;7.29;100.00
38630;BME280;24384;51.988;4.644;2023-12-22T02:54:21;100348.63;;;7.28;100.00
38630;BME280;24384;51.988;4.644;2023-12-22T02:56:47;100354.59;;;7.33;100.00
38630;BME280;24384;51.988;4.644;2023-12-22T02:59:12;100345.94;;;7.31;100.00
38630;BME280;24384;51.988;4.644;2023-12-22T03:01:38;100333.75;;;7.28;100.00
38630;BME280;24384;51.988;4.644;2023-12-22T03:04:03;100338.94;;;7.30;100.00
38630;BME280;24384;51.988;4.644;2023-12-22T03:06:29;100354.56;;;7.34;100.00
38630;BME280;24384;51.988;4.644;2023-12-22T03:08:54;100343.13;;;7.37;100.00
38630;BME280;24384;51.988;4.644;2023-12-22T03:11:19;100349.22;;;7.38;100.00
38630;BME280;24384;51.988;4.644;2023-12-22T03:13:44;100347.50;;;7.37;100.00
38630;BME280;24384;51.988;4.644;2023-12-22T03:16:10;100340.50;;;7.37;100.00
38630;BME280;24384;51.988;4.644;2023-12-22T03:18:37;100347.47;;;7.38;100.00
38630;BME280;24384;51.988;4.644;2023-12-22T03:21:03;100349.22;;;7.38;100.00
38630;BME280;24384;51.988;4.644;2023-12-22T03:23:29;100341.50;;;7.33;100.00
38630;BME280;24384;51.988;4.644;2023-12-22T03:25:54;100338.81;;;7.34;100.00
38630;BME280;24384;51.988;4.644;2023-12-22T03:28:19;100351.84;;;7.38;100.00
38630;BME280;24384;51.988;4.644;2023-12-22T03:30:45;100342.25;;;7.37;100.00
38630;BME280;24384;51.988;4.644;2023-12-22T03:33:10;100363.28;;;7.35;100.00
38630;BME280;24384;51.988;4.644;2023-12-22T03:35:35;100359.91;;;7.31;100.00
38630;BME280;24384;51.988;4.644;2023-12-22T03:38:00;100360.69;;;7.33;100.00
38630;BME280;24384;51.988;4.644;2023-12-22T03:40:26;100376.41;;;7.35;100.00
38630;BME280;24384;51.988;4.644;2023-12-22T03:42:51;100360.63;;;7.37;100.00
38630;BME280;24384;51.988;4.644;2023-12-22T03:45:16;100359.72;;;7.38;100.00
38630;BME280;24384;51.988;4.644;2023-12-22T03:47:42;100366.75;;;7.37;100.00
38630;BME280;24384;51.988;4.644;2023-12-22T03:50:07;100356.13;;;7.42;100.00
38630;BME280;24384;51.988;4.644;2023-12-22T03:52:33;100370.06;;;7.44;100.00
38630;BME280;24384;51.988;4.644;2023-12-22T03:54:59;100364.69;;;7.48;100.00
38630;BME280;24384;51.988;4.644;2023-12-22T03:57:24;100366.53;;;7.45;100.00
38630;BME280;24384;51.988;4.644;2023-12-22T03:59:49;100369.03;;;7.49;100.00
38630;BME280;24384;51.988;4.644;2023-12-22T04:02:15;100369.81;;;7.53;100.00
38630;BME280;24384;51.988;4.644;2023-12-22T04:04:40;100370.59;;;7.55;100.00
38630;BME280;24384;51.988;4.644;2023-12-22T04:07:05;100373.09;;;7.60;100.00
38630;BME280;24384;51.988;4.644;2023-12-22T04:09:31;100365.00;;;7.67;100.00
38630;BME280;24384;51.988;4.644;2023-12-22T04:11:56;100391.16;;;7.70;100.00
38630;BME280;24384;51.988;4.644;2023-12-22T04:14:22;100386.06;;;7.66;100.00
38630;BME280;24384;51.988;4.644;2023-12-22T04:16:47;100393.03;;;7.67;100.00
38630;BME280;24384;51.988;4.644;2023-12-22T04:19:12;100385.06;;;7.70;100.00
38630;BME280;24384;51.988;4.644;2023-12-22T04:21:38;100386.81;;;7.71;100.00
38630;BME280;24384;51.988;4.644;2023-12-22T04:24:03;100399.94;;;7.71;100.00
38630;BME280;24384;51.988;4.644;2023-12-22T04:26:29;100396.50;;;7.67;100.00
38630;BME280;24384;51.988;4.644;2023-12-22T04:28:54;100393.94;;;7.66;100.00
38630;BME280;24384;51.988;4.644;2023-12-22T04:31:20;100385.97;;;7.69;100.00
38630;BME280;24384;51.988;4.644;2023-12-22T04:33:45;100378.97;;;7.69;100.00
38630;BME280;24384;51.988;4.644;2023-12-22T04:36:10;100386.81;;;7.71;100.00
38630;BME280;24384;51.988;4.644;2023-12-22T04:38:36;100386.81;;;7.71;100.00
38630;BME280;24384;51.988;4.644;2023-12-22T04:41:01;100369.19;;;7.75;100.00
38630;BME280;24384;51.988;4.644;2023-12-22T04:43:26;100375.28;;;7.75;100.00
38630;BME280;24384;51.988;4.644;2023-12-22T04:45:51;100366.59;;;7.73;100.00
38630;BME280;24384;51.988;4.644;2023-12-22T04:48:17;100368.34;;;7.74;100.00
38630;BME280;24384;51.988;4.644;2023-12-22T04:50:42;100362.22;;;7.74;100.00
38630;BME280;24384;51.988;4.644;2023-12-22T04:53:08;100376.97;;;7.78;100.00
38630;BME280;24384;51.988;4.644;2023-12-22T04:55:33;100374.25;;;7.81;100.00
38630;BME280;24384;51.988;4.644;2023-12-22T04:57:58;100376.84;;;7.82;100.00
38630;BME280;24384;51.988;4.644;2023-12-22T05:00:24;100378.66;;;7.80;100.00
38630;BME280;24384;51.988;4.644;2023-12-22T05:02:49;100386.53;;;7.80;100.00
38630;BME280;24384;51.988;4.644;2023-12-22T05:05:14;100389.94;;;7.84;100.00
38630;BME280;24384;51.988;4.644;2023-12-22T05:07:40;100397.84;;;7.82;100.00
38630;BME280;24384;51.988;4.644;2023-12-22T05:10:05;100388.09;;;7.86;100.00
38630;BME280;24384;51.988;4.644;2023-12-22T05:12:31;100395.03;;;7.88;100.00
38630;BME280;24384;51.988;4.644;2023-12-22T05:14:56;100394.19;;;7.88;100.00
38630;BME280;24384;51.988;4.644;2023-12-22T05:17:21;100388.91;;;7.89;100.00
38630;BME280;24384;51.988;4.644;2023-12-22T05:19:47;100394.16;;;7.89;100.00
38630;BME280;24384;51.988;4.644;2023-12-22T05:22:12;100389.84;;;7.87;100.00
38630;BME280;24384;51.988;4.644;2023-12-22T05:24:38;100386.22;;;7.91;100.00
38630;BME280;24384;51.988;4.644;2023-12-22T05:27:03;100387.00;;;7.95;100.00
38630;BME280;24384;51.988;4.644;2023-12-22T05:29:29;100380.84;;;7.96;100.00
38630;BME280;24384;51.988;4.644;2023-12-22T05:31:54;100380.97;;;7.91;100.00
38630;BME280;24384;51.988;4.644;2023-12-22T05:34:20;100375.72;;;7.91;100.00
38630;BME280;24384;51.988;4.644;2023-12-22T05:36:45;100361.63;;;7.94;100.00
38630;BME280;24384;51.988;4.644;2023-12-22T05:39:10;100373.78;;;7.98;100.00
38630;BME280;24384;51.988;4.644;2023-12-22T05:41:35;100378.97;;;7.99;100.00
38630;BME280;24384;51.988;4.644;2023-12-22T05:44:03;100390.25;;;8.03;100.00
38630;BME280;24384;51.988;4.644;2023-12-22T05:46:29;100364.94;;;8.00;100.00
38630;BME280;24384;51.988;4.644;2023-12-22T05:48:54;100364.94;;;8.00;100.00
38630;BME280;24384;51.988;4.644;2023-12-22T05:51:24;100359.75;;;7.99;100.00
38630;BME280;24384;51.988;4.644;2023-12-22T05:53:49;100352.75;;;7.98;100.00
38630;BME280;24384;51.988;4.644;2023-12-22T05:56:19;100362.31;;;8.00;100.00
38630;BME280;24384;51.988;4.644;2023-12-22T05:58:45;100374.56;;;8.00;100.00
38630;BME280;24384;51.988;4.644;2023-12-22T06:01:18;100387.75;;;7.98;100.00
38630;BME280;24384;51.988;4.644;2023-12-22T06:03:44;100396.31;;;8.05;100.00
38630;BME280;24384;51.988;4.644;2023-12-22T06:06:10;100388.41;;;8.06;100.00
38630;BME280;24384;51.988;4.644;2023-12-22T06:08:36;100398.06;;;8.04;100.00
38630;BME280;24384;51.988;4.644;2023-12-22T06:11:01;100391.13;;;8.03;100.00
38630;BME280;24384;51.988;4.644;2023-12-22T06:13:27;100391.97;;;8.04;100.00
38630;BME280;24384;51.988;4.644;2023-12-22T06:15:52;100384.00;;;8.07;100.00
38630;BME280;24384;51.988;4.644;2023-12-22T06:18:18;100386.63;;;8.07;100.00
38630;BME280;24384;51.988;4.644;2023-12-22T06:20:43;100395.41;;;8.06;100.00
38630;BME280;24384;51.988;4.644;2023-12-22T06:23:08;100387.44;;;8.09;100.00
38630;BME280;24384;51.988;4.644;2023-12-22T06:25:34;100389.13;;;8.12;100.00
38630;BME280;24384;51.988;4.644;2023-12-22T06:27:59;100380.19;;;8.17;100.00
38630;BME280;24384;51.988;4.644;2023-12-22T06:30:24;100385.44;;;8.17;100.00
38630;BME280;24384;51.988;4.644;2023-12-22T06:32:50;100374.00;;;8.18;100.00
38630;BME280;24384;51.988;4.644;2023-12-22T06:35:15;100383.63;;;8.19;100.00
38630;BME280;24384;51.988;4.644;2023-12-22T06:37:40;100376.69;;;8.17;100.00
38630;BME280;24384;51.988;4.644;2023-12-22T06:40:06;100388.16;;;8.14;100.00
38630;BME280;24384;51.988;4.644;2023-12-22T06:42:31;100377.56;;;8.17;100.00
38630;BME280;24384;51.988;4.644;2023-12-22T06:44:57;100384.53;;;8.18;100.00
38630;BME280;24384;51.988;4.644;2023-12-22T06:47:22;100368.66;;;8.21;100.00
38630;BME280;24384;51.988;4.644;2023-12-22T06:49:47;100373.88;;;8.23;100.00
38630;BME280;24384;51.988;4.644;2023-12-22T06:52:13;100360.75;;;8.23;100.00
38630;BME280;24384;51.988;4.644;2023-12-22T06:54:38;100371.28;;;8.21;100.00
38630;BME280;24384;51.988;4.644;2023-12-22T06:57:03;100366.88;;;8.23;100.00
38630;BME280;24384;51.988;4.644;2023-12-22T06:59:29;100368.75;;;8.18;100.00
38630;BME280;24384;51.988;4.644;2023-12-22T07:01:54;100361.63;;;8.23;100.00
38630;BME280;24384;51.988;4.644;2023-12-22T07:04:20;100345.91;;;8.22;100.00
38630;BME280;24384;51.988;4.644;2023-12-22T07:06:46;100362.41;;;8.25;100.00
38630;BME280;24384;51.988;4.644;2023-12-22T07:11:51;100356.31;;;8.25;100.00
38630;BME280;24384;51.988;4.644;2023-12-22T07:14:17;100345.81;;;8.25;100.00
38630;BME280;24384;51.988;4.644;2023-12-22T07:16:43;100357.97;;;8.28;100.00
38630;BME280;24384;51.988;4.644;2023-12-22T07:19:09;100362.38;;;8.27;100.00
38630;BME280;24384;51.988;4.644;2023-12-22T07:21:34;100344.03;;;8.25;100.00
38630;BME280;24384;51.988;4.644;2023-12-22T07:24:00;100344.03;;;8.25;100.00
38630;BME280;24384;51.988;4.644;2023-12-22T07:26:26;100364.19;;;8.25;100.00
38630;BME280;24384;51.988;4.644;2023-12-22T07:28:52;100355.44;;;8.24;100.00
38630;BME280;24384;51.988;4.644;2023-12-22T07:31:18;100360.84;;;8.20;100.00
38630;BME280;24384;51.988;4.644;2023-12-22T07:33:43;100366.00;;;8.23;100.00
38630;BME280;24384;51.988;4.644;2023-12-22T07:36:09;100360.69;;;8.24;100.00
38630;BME280;24384;51.988;4.644;2023-12-22T07:38:35;100381.72;;;8.24;100.00
38630;BME280;24384;51.988;4.644;2023-12-22T07:41:00;100363.28;;;8.26;100.00
38630;BME280;24384;51.988;4.644;2023-12-22T07:43:25;100369.50;;;8.23;100.00
38630;BME280;24384;51.988;4.644;2023-12-22T07:45:51;100366.78;;;8.27;100.00
38630;BME280;24384;51.988;4.644;2023-12-22T07:48:19;100354.81;;;8.16;100.00
38630;BME280;24384;51.988;4.644;2023-12-22T07:50:45;100346.09;;;8.16;100.00
38630;BME280;24384;51.988;4.644;2023-12-22T07:53:10;100353.84;;;8.20;100.00
38630;BME280;24384;51.988;4.644;2023-12-22T07:55:36;100354.91;;;8.13;100.00
38630;BME280;24384;51.988;4.644;2023-12-22T07:58:03;100333.19;;;8.08;100.00
38630;BME280;24384;51.988;4.644;2023-12-22T08:00:29;100348.13;;;8.06;100.00
38630;BME280;24384;51.988;4.644;2023-12-22T08:02:54;100342.78;;;8.09;100.00
38630;BME280;24384;51.988;4.644;2023-12-22T08:05:19;100341.84;;;8.12;100.00
38630;BME280;24384;51.988;4.644;2023-12-22T08:07:45;100340.78;;;8.17;100.00
38630;BME280;24384;51.988;4.644;2023-12-22T08:10:10;100346.16;;;8.14;100.00
38630;BME280;24384;51.988;4.644;2023-12-22T08:12:37;100346.16;;;8.14;100.00
38630;BME280;24384;51.988;4.644;2023-12-22T08:15:03;100338.97;;;8.19;100.00
38630;BME280;24384;51.988;4.644;2023-12-22T08:17:28;100345.13;;;8.18;100.00
38630;BME280;24384;51.988;4.644;2023-12-22T08:19:54;100326.69;;;8.20;100.00
38630;BME280;24384;51.988;4.644;2023-12-22T08:22:19;100334.59;;;8.18;100.00
38630;BME280;24384;51.988;4.644;2023-12-22T08:24:44;100345.94;;;8.20;100.00
38630;BME280;24384;51.988;4.644;2023-12-22T08:27:10;100343.97;;;8.27;100.00
38630;BME280;24384;51.988;4.644;2023-12-22T08:29:35;100345.75;;;8.27;100.00
38630;BME280;24384;51.988;4.644;2023-12-22T08:32:01;100339.47;;;8.31;100.00
38630;BME280;24384;51.988;4.644;2023-12-22T08:34:27;100339.53;;;8.29;100.00
38630;BME280;24384;51.988;4.644;2023-12-22T08:36:52;100330.69;;;8.32;100.00
38630;BME280;24384;51.988;4.644;2023-12-22T08:39:18;100336.72;;;8.35;100.00
38630;BME280;24384;51.988;4.644;2023-12-22T08:41:43;100328.72;;;8.38;100.00
38630;BME280;24384;51.988;4.644;2023-12-22T08:44:09;100332.38;;;8.34;100.00
38630;BME280;24384;51.988;4.644;2023-12-22T08:46:35;100324.59;;;8.31;100.00
38630;BME280;24384;51.988;4.644;2023-12-22T08:49:02;100316.03;;;8.24;100.00
38630;BME280;24384;51.988;4.644;2023-12-22T08:51:28;100323.13;;;8.22;100.00
38630;BME280;24384;51.988;4.644;2023-12-22T08:53:54;100327.28;;;8.30;100.00
38630;BME280;24384;51.988;4.644;2023-12-22T08:56:21;100326.16;;;8.37;100.00
38630;BME280;24384;51.988;4.644;2023-12-22T08:58:46;100332.97;;;8.42;100.00
38630;BME280;24384;51.988;4.644;2023-12-22T09:01:15;100326.88;;;8.44;100.00
38630;BME280;24384;51.988;4.644;2023-12-22T09:03:41;100335.34;;;8.52;100.00
38630;BME280;24384;51.988;4.644;2023-12-22T09:06:20;100325.69;;;8.52;100.00
38630;BME280;24384;51.988;4.644;2023-12-22T09:08:46;100335.34;;;8.52;100.00
38630;BME280;24384;51.988;4.644;2023-12-22T09:11:12;100346.50;;;8.58;100.00
38630;BME280;24384;51.988;4.644;2023-12-22T09:13:38;100348.25;;;8.59;100.00
38630;BME280;24384;51.988;4.644;2023-12-22T09:16:05;100333.13;;;8.66;100.00
38630;BME280;24384;51.988;4.644;2023-12-22T09:18:31;100325.19;;;8.68;100.00
38630;BME280;24384;51.988;4.644;2023-12-22T09:20:57;100326.00;;;8.70;100.00
38630;BME280;24384;51.988;4.644;2023-12-22T09:23:23;100314.56;;;8.71;100.00
38630;BME280;24384;51.988;4.644;2023-12-22T09:25:48;100319.66;;;8.75;100.00
38630;BME280;24384;51.988;4.644;2023-12-22T09:28:13;100334.53;;;8.76;100.00
38630;BME280;24384;51.988;4.644;2023-12-22T09:30:39;100335.28;;;8.80;100.00
38630;BME280;24384;51.988;4.644;2023-12-22T09:33:04;100338.75;;;8.82;100.00
38630;BME280;24384;51.988;4.644;2023-12-22T09:35:29;100345.59;;;8.86;100.00
38630;BME280;24384;51.988;4.644;2023-12-22T09:37:55;100349.75;;;8.93;100.00
38630;BME280;24384;51.988;4.644;2023-12-22T09:40:20;100351.53;;;8.93;100.00
38630;BME280;24384;51.988;4.644;2023-12-22T09:42:47;100336.66;;;8.92;100.00
38630;BME280;24384;51.988;4.644;2023-12-22T09:45:16;100343.69;;;8.91;100.00
38630;BME280;24384;51.988;4.644;2023-12-22T09:47:44;100338.31;;;8.94;100.00
38630;BME280;24384;51.988;4.644;2023-12-22T09:50:10;100353.06;;;8.99;100.00
38630;BME280;24384;51.988;4.644;2023-12-22T09:52:35;100349.69;;;8.95;100.00
38630;BME280;24384;51.988;4.644;2023-12-22T09:55:02;100363.59;;;8.99;100.00
38630;BME280;24384;51.988;4.644;2023-12-22T09:57:30;100366.28;;;8.97;100.00
38630;BME280;24384;51.988;4.644;2023-12-22T09:59:57;100356.56;;;8.99;100.00
38630;BME280;24384;51.988;4.644;2023-12-22T10:02:27;100357.44;;;9.00;100.00
38630;BME280;24384;51.988;4.644;2023-12-22T10:04:52;100361.69;;;9.04;100.00
38630;BME280;24384;51.988;4.644;2023-12-22T10:07:18;100357.44;;;9.00;100.00
38630;BME280;24384;51.988;4.644;2023-12-22T10:09:46;100358.13;;;9.05;100.00
38630;BME280;24384;51.988;4.644;2023-12-22T10:12:13;100380.88;;;9.06;100.00
38630;BME280;24384;51.988;4.644;2023-12-22T10:14:41;100365.94;;;9.06;100.00
38630;BME280;24384;51.988;4.644;2023-12-22T10:17:07;100369.25;;;9.13;100.00
38630;BME280;24384;51.988;4.644;2023-12-22T10:19:32;100356.94;;;9.13;100.00
38630;BME280;24384;51.988;4.644;2023-12-22T10:21:57;100363.78;;;9.19;100.00
38630;BME280;24384;51.988;4.644;2023-12-22T10:27:04;100349.75;;;9.19;100.00
38630;BME280;24384;51.988;4.644;2023-12-22T10:29:30;100356.63;;;9.23;100.00
38630;BME280;24384;51.988;4.644;2023-12-22T10:31:55;100353.88;;;9.26;100.00
38630;BME280;24384;51.988;4.644;2023-12-22T10:34:20;100363.41;;;9.30;100.00
38630;BME280;24384;51.988;4.644;2023-12-22T10:36:46;100368.50;;;9.35;100.00
38630;BME280;24384;51.988;4.644;2023-12-22T10:39:11;100370.41;;;9.29;100.00
38630;BME280;24384;51.988;4.644;2023-12-22T10:41:36;100368.63;;;9.31;100.00
38630;BME280;24384;51.988;4.644;2023-12-22T10:44:02;100385.13;;;9.35;100.00
38630;BME280;24384;51.988;4.644;2023-12-22T10:46:30;100363.13;;;9.38;100.00
38630;BME280;24384;51.988;4.644;2023-12-22T10:48:58;100364.78;;;9.40;100.00
38630;BME280;24384;51.988;4.644;2023-12-22T10:51:24;100373.53;;;9.41;100.00
38630;BME280;24384;51.988;4.644;2023-12-22T10:53:50;100361.25;;;9.41;100.00
38630;BME280;24384;51.988;4.644;2023-12-22T10:56:16;100356.66;;;9.46;100.00
38630;BME280;24384;51.988;4.644;2023-12-22T10:58:42;100359.94;;;9.53;100.00
38630;BME280;24384;51.988;4.644;2023-12-22T11:01:09;100368.00;;;9.48;100.00
38630;BME280;24384;51.988;4.644;2023-12-22T11:03:36;100365.22;;;9.53;100.00
38630;BME280;24384;51.988;4.644;2023-12-22T11:06:04;100352.22;;;9.48;100.00
38630;BME280;24384;51.988;4.644;2023-12-22T11:08:33;100344.44;;;9.45;100.00
38630;BME280;24384;51.988;4.644;2023-12-22T11:11:07;100349.81;;;9.42;100.00
38630;BME280;24384;51.988;4.644;2023-12-22T11:13:37;100346.25;;;9.43;100.00
38630;BME280;24384;51.988;4.644;2023-12-22T11:16:04;100349.75;;;9.44;100.00
38630;BME280;24384;51.988;4.644;2023-12-22T11:18:30;100338.72;;;9.32;100.00
38630;BME280;24384;51.988;4.644;2023-12-22T11:20:57;100325.56;;;9.32;100.00
38630;BME280;24384;51.988;4.644;2023-12-22T11:23:23;100343.16;;;9.32;100.00
38630;BME280;24384;51.988;4.644;2023-12-22T11:25:50;100337.81;;;9.34;100.00
38630;BME280;24384;51.988;4.644;2023-12-22T11:28:19;100337.88;;;9.32;100.00
38630;BME280;24384;51.988;4.644;2023-12-22T11:30:47;100329.03;;;9.35;100.00
38630;BME280;24384;51.988;4.644;2023-12-22T11:33:15;100319.19;;;9.40;100.00
38630;BME280;24384;51.988;4.644;2023-12-22T11:35:42;100348.66;;;9.49;100.00
38630;BME280;24384;51.988;4.644;2023-12-22T11:38:10;100328.53;;;9.48;100.00
38630;BME280;24384;51.988;4.644;2023-12-22T11:40:36;100336.38;;;9.50;100.00
38630;BME280;24384;51.988;4.644;2023-12-22T11:43:02;100325.91;;;9.48;100.00
38630;BME280;24384;51.988;4.644;2023-12-22T11:45:30;100330.09;;;9.53;100.00
38630;BME280;24384;51.988;4.644;2023-12-22T11:47:56;100316.94;;;9.53;100.00
38630;BME280;24384;51.988;4.644;2023-12-22T11:50:29;100316.78;;;9.57;100.00
38630;BME280;24384;51.988;4.644;2023-12-22T11:52:55;100316.78;;;9.57;100.00
38630;BME280;24384;51.988;4.644;2023-12-22T11:58:44;100318.34;;;9.63;100.00
38630;BME280;24384;51.988;4.644;2023-12-22T12:01:25;100309.75;;;9.58;100.00
38630;BME280;24384;51.988;4.644;2023-12-22T12:03:56;100304.25;;;9.64;100.00
38630;BME280;24384;51.988;4.644;2023-12-22T12:08:54;100312.28;;;9.61;100.00
38630;BME280;24384;51.988;4.644;2023-12-22T12:11:24;100302.47;;;9.64;100.00
38630;BME280;24384;51.988;4.644;2023-12-22T12:14:13;100290.28;;;9.62;100.00
38630;BME280;24384;51.988;4.644;2023-12-22T12:16:40;100277.06;;;9.63;100.00
38630;BME280;24384;51.988;4.644;2023-12-22T12:19:09;100276.09;;;9.66;100.00
38630;BME280;24384;51.988;4.644;2023-12-22T12:21:34;100269.91;;;9.67;100.00
38630;BME280;24384;51.988;4.644;2023-12-22T12:24:00;100257.59;;;9.67;100.00
38630;BME280;24384;51.988;4.644;2023-12-22T12:26:25;100270.66;;;9.71;100.00
38630;BME280;24384;51.988;4.644;2023-12-22T12:28:51;100277.63;;;9.72;100.00
38630;BME280;24384;51.988;4.644;2023-12-22T12:31:17;100281.28;;;9.67;100.00
38630;BME280;24384;51.988;4.644;2023-12-22T12:33:44;100278.59;;;9.69;100.00
38630;BME280;24384;51.988;4.644;2023-12-22T12:36:10;100232.16;;;9.66;100.00
38630;BME280;24384;51.988;4.644;2023-12-22T12:38:42;100282.91;;;9.72;100.00
38630;BME280;24384;51.988;4.644;2023-12-22T12:41:10;100302.91;;;9.76;100.00
38630;BME280;24384;51.988;4.644;2023-12-22T12:43:41;100291.28;;;9.81;100.00
38630;BME280;24384;51.988;4.644;2023-12-22T12:46:07;100299.19;;;9.81;100.00
38630;BME280;24384;51.988;4.644;2023-12-22T12:48:32;100296.69;;;9.78;100.00
38630;BME280;24384;51.988;4.644;2023-12-22T12:51:05;100309.13;;;9.75;100.00
38630;BME280;24384;51.988;4.644;2023-12-22T12:53:36;100295.84;;;9.78;100.00
38630;BME280;24384;51.988;4.644;2023-12-22T12:56:01;100288.06;;;9.75;100.00
38630;BME280;24384;51.988;4.644;2023-12-22T12:58:28;100298.53;;;9.76;100.00
38630;BME280;24384;51.988;4.644;2023-12-22T13:01:12;100288.00;;;9.76;100.00